Time;durP1;ratioP1;P1;durP2;ratioP2;P2;SDS_P1;SDS_P2;PMS_P1;PMS_P2;Temp;Humidity;BMP_temperature;BMP_pressure;BME280_temperature;BME280_humidity;BME280_pressure;Samples;Min_cycle;Max_cycle;Signal;HPM_P1;HPM_P2
2022/04/01 00:02:19;;;;;;;32.08;7.00;;;;;;;13.59;54.32;93179.69;5107663;28;20032;-71
2022/04/01 00:04:45;;;;;;;31.00;5.45;;;;;;;13.67;53.35;93181.41;5112472;28;20028;-70
2022/04/01 00:07:11;;;;;;;25.67;5.18;;;;;;;13.67;53.07;93184.81;5111937;28;20070;-71
2022/04/01 00:09:37;;;;;;;27.17;5.68;;;;;;;13.75;53.19;93189.09;5112216;28;20027;-70
2022/04/01 00:12:06;;;;;;;33.63;5.70;;;;;;;13.82;52.93;93200.44;5112315;27;20473;-71
2022/04/01 00:14:32;;;;;;;26.10;5.32;;;;;;;13.80;53.57;93197.19;5127046;27;20035;-71
2022/04/01 00:16:57;;;;;;;23.92;5.30;;;;;;;13.74;53.91;93195.31;5111151;27;20035;-71
2022/04/01 00:19:24;;;;;;;29.15;5.50;;;;;;;13.62;54.00;93194.97;5130237;27;20076;-71
2022/04/01 00:21:49;;;;;;;28.23;5.47;;;;;;;13.67;53.92;93200.47;5113457;27;20038;-70
2022/04/01 00:24:14;;;;;;;29.50;5.60;;;;;;;13.62;54.38;93189.75;5115540;27;20106;-70
2022/04/01 00:26:40;;;;;;;30.52;5.32;;;;;;;13.59;54.02;93203.19;5113504;27;20085;-71
2022/04/01 00:29:14;;;;;;;32.17;5.15;;;;;;;13.50;53.43;93199.88;5123975;27;20132;-71
2022/04/01 00:31:42;;;;;;;25.90;4.53;;;;;;;13.40;54.46;93196.78;5116918;27;20032;-70
2022/04/01 00:34:17;;;;;;;22.33;4.75;;;;;;;13.43;54.14;93206.84;5115231;27;20126;-71
2022/04/01 00:36:47;;;;;;;17.88;3.53;;;;;;;13.38;54.69;93211.78;5113116;27;20580;-70
2022/04/01 00:39:13;;;;;;;23.83;3.58;;;;;;;13.35;54.82;93212.97;5116615;27;20027;-71
2022/04/01 00:41:39;;;;;;;18.90;3.13;;;;;;;13.27;54.44;93207.03;5131516;27;20531;-70
2022/04/01 00:44:21;;;;;;;23.92;4.20;;;;;;;13.23;54.71;93213.56;5119891;27;20032;-71
2022/04/01 00:46:49;;;;;;;20.67;4.75;;;;;;;13.18;54.57;93201.09;5147036;27;20238;-70
2022/04/01 00:49:15;;;;;;;17.52;3.53;;;;;;;13.01;55.48;93210.91;5113801;27;20489;-70
2022/04/01 00:51:42;;;;;;;15.13;3.72;;;;;;;12.96;55.34;93200.22;5117406;27;20066;-71
2022/04/01 00:54:07;;;;;;;20.30;3.53;;;;;;;12.85;55.75;93209.28;5112913;27;20027;-70
2022/04/01 00:56:33;;;;;;;21.05;5.35;;;;;;;12.73;56.09;93211.53;5112537;27;20024;-70
2022/04/01 00:58:59;;;;;;;25.17;6.30;;;;;;;12.65;56.61;93216.81;5114624;27;20039;-70
2022/04/01 01:01:25;;;;;;;21.60;5.18;;;;;;;12.54;57.16;93227.69;5123473;27;20079;-70
2022/04/01 01:03:50;;;;;;;19.02;4.95;;;;;;;12.37;57.47;93216.59;5134696;27;20031;-71
2022/04/01 01:06:19;;;;;;;30.58;4.75;;;;;;;12.36;57.14;93220.16;5125563;27;20030;-70
2022/04/01 01:08:45;;;;;;;29.80;5.10;;;;;;;12.35;57.26;93212.56;5135617;27;20031;-70
2022/04/01 01:11:10;;;;;;;23.50;5.45;;;;;;;12.13;57.70;93195.97;5134129;27;20034;-70
2022/04/01 01:13:36;;;;;;;25.83;4.63;;;;;;;12.20;58.04;93212.50;5150706;27;20049;-70
2022/04/01 01:16:01;;;;;;;24.05;5.25;;;;;;;12.11;59.44;93213.56;5136452;27;20015;-70
2022/04/01 01:18:27;;;;;;;26.02;5.28;;;;;;;11.98;59.36;93212.34;5131787;27;20035;-71
2022/04/01 01:20:52;;;;;;;30.00;4.38;;;;;;;11.92;58.57;93215.63;5132658;27;20572;-71
2022/04/01 01:23:18;;;;;;;29.65;5.53;;;;;;;11.84;59.42;93213.09;5131721;27;20050;-70
2022/04/01 01:25:45;;;;;;;26.75;6.30;;;;;;;11.75;59.39;93229.72;5131334;27;20405;-70
2022/04/01 01:28:11;;;;;;;22.90;5.25;;;;;;;11.69;59.58;93222.59;5126150;27;20076;-70
2022/04/01 01:30:36;;;;;;;30.52;5.32;;;;;;;11.62;59.75;93232.91;5110542;27;20493;-70
2022/04/01 01:33:02;;;;;;;28.70;6.05;;;;;;;11.59;59.58;93225.44;5132116;27;20044;-70
2022/04/01 01:35:28;;;;;;;30.60;6.72;;;;;;;11.55;60.00;93224.94;5134655;27;20026;-70
2022/04/01 01:37:54;;;;;;;38.42;6.00;;;;;;;11.53;60.02;93210.50;5135951;27;20088;-70
2022/04/01 01:40:20;;;;;;;34.75;6.47;;;;;;;11.49;59.13;93210.03;5131273;27;20027;-70
2022/04/01 01:42:45;;;;;;;36.13;7.03;;;;;;;11.62;58.60;93183.47;5130990;27;20519;-70
2022/04/01 01:45:11;;;;;;;45.33;8.90;;;;;;;11.71;58.65;93195.44;5127385;27;20032;-70
2022/04/01 01:47:36;;;;;;;36.03;6.78;;;;;;;11.82;57.63;93191.63;5121615;27;20066;-70
2022/04/01 01:55:30;;;;;;;33.70;6.68;;;;;;;12.16;56.80;93174.78;5129669;27;20046;-70
2022/04/01 01:57:56;;;;;;;39.70;7.43;;;;;;;12.31;56.15;93175.63;5132178;27;20031;-70
2022/04/01 02:00:22;;;;;;;41.88;7.40;;;;;;;12.38;55.71;93181.75;5132121;27;20026;-70
2022/04/01 02:02:50;;;;;;;40.90;7.95;;;;;;;12.47;55.29;93169.47;5124431;27;20118;-70
2022/04/01 02:05:16;;;;;;;39.58;6.97;;;;;;;12.53;55.13;93182.56;5111237;28;20036;-70
2022/04/01 02:07:41;;;;;;;46.22;8.73;;;;;;;12.52;54.86;93164.53;5101913;27;20031;-71
2022/04/01 02:10:07;;;;;;;38.92;8.02;;;;;;;12.63;54.44;93163.28;5134275;27;20031;-70
2022/04/01 02:12:32;;;;;;;39.35;7.47;;;;;;;12.68;54.02;93166.97;5146674;27;20023;-70
2022/04/01 02:14:59;;;;;;;39.83;7.53;;;;;;;12.67;54.20;93154.91;5129177;27;20023;-70
2022/04/01 02:17:24;;;;;;;47.97;7.35;;;;;;;12.69;54.11;93149.53;5131843;27;20039;-71
2022/04/01 02:19:50;;;;;;;42.33;7.80;;;;;;;12.75;53.47;93133.97;5131770;27;20050;-70
2022/04/01 02:22:16;;;;;;;50.17;8.18;;;;;;;12.92;52.61;93125.97;5131566;27;20015;-71
2022/04/01 02:24:41;;;;;;;49.90;8.77;;;;;;;13.01;52.30;93127.50;5113458;27;20030;-72
2022/04/01 02:27:07;;;;;;;43.83;7.55;;;;;;;13.11;52.78;93130.59;5111151;28;20076;-70
2022/04/01 02:29:33;;;;;;;48.28;7.13;;;;;;;13.04;52.44;93110.66;5123825;28;20027;-70
2022/04/01 02:31:58;;;;;;;42.65;6.18;;;;;;;13.11;51.75;93088.09;5106841;28;20031;-71
2022/04/01 02:34:25;;;;;;;45.80;7.93;;;;;;;13.16;51.84;93109.22;5120691;28;20038;-70
2022/04/01 02:36:51;;;;;;;52.40;9.95;;;;;;;13.10;51.71;93081.28;5120292;28;20047;-71
2022/04/01 02:39:17;;;;;;;52.92;8.43;;;;;;;13.09;52.23;93084.84;5117772;28;20027;-70
2022/04/01 02:41:42;;;;;;;51.63;8.77;;;;;;;13.17;51.30;93066.50;5113403;28;20043;-71
2022/04/01 02:44:08;;;;;;;54.15;8.55;;;;;;;13.26;50.83;93072.44;5118757;27;20039;-70
2022/04/01 02:46:44;;;;;;;44.80;8.57;;;;;;;13.23;50.74;93060.53;5133855;27;20027;-70
2022/04/01 02:49:11;;;;;;;53.22;9.02;;;;;;;13.37;50.42;93072.75;5151134;27;20062;-70
2022/04/01 02:51:39;;;;;;;60.00;8.30;;;;;;;13.45;49.75;93017.03;5120684;28;20556;-71
2022/04/01 02:54:05;;;;;;;72.38;11.13;;;;;;;13.56;49.31;93050.44;5130130;28;20043;-70
2022/04/01 02:56:32;;;;;;;50.45;9.27;;;;;;;13.67;49.07;93051.75;5113203;28;20092;-70
2022/04/01 02:58:59;;;;;;;51.30;8.63;;;;;;;13.76;48.70;93034.97;5129929;28;20062;-70
2022/04/01 03:01:25;;;;;;;59.33;8.60;;;;;;;13.78;48.91;93043.41;5128541;28;20031;-70
2022/04/01 03:03:50;;;;;;;49.38;9.02;;;;;;;13.75;48.51;93042.97;5130276;28;20377;-71
2022/04/01 03:06:16;;;;;;;61.30;9.23;;;;;;;13.80;48.46;93024.94;5109319;28;20063;-71
2022/04/01 03:08:43;;;;;;;56.22;9.63;;;;;;;13.91;48.44;93041.91;5092830;28;20035;-71
2022/04/01 03:11:09;;;;;;;51.22;9.60;;;;;;;13.88;48.60;93047.50;5120762;28;20027;-71
2022/04/01 03:13:34;;;;;;;49.85;9.68;;;;;;;13.82;48.52;93036.81;5109717;28;20027;-71
2022/04/01 03:16:00;;;;;;;46.92;7.97;;;;;;;13.83;48.66;93038.41;5122971;28;20608;-71
2022/04/01 03:18:25;;;;;;;50.40;7.93;;;;;;;13.76;48.67;93021.91;5092386;28;20028;-71
2022/04/01 03:20:50;;;;;;;54.88;9.32;;;;;;;13.78;48.49;93022.53;5119956;28;20019;-71
2022/04/01 03:23:16;;;;;;;55.40;9.05;;;;;;;13.84;48.56;93020.94;5126572;27;20031;-71
2022/04/01 03:25:41;;;;;;;48.15;9.68;;;;;;;13.91;48.34;93032.25;5129770;28;20046;-71
2022/04/01 03:28:07;;;;;;;54.47;9.02;;;;;;;13.86;48.08;93014.53;5130100;28;20408;-71
2022/04/01 03:30:32;;;;;;;54.20;9.75;;;;;;;13.85;48.47;93018.16;5108920;28;20024;-71
2022/04/01 03:32:58;;;;;;;60.35;8.52;;;;;;;13.76;48.17;93003.66;5129378;27;20125;-71
2022/04/01 03:35:24;;;;;;;56.83;9.20;;;;;;;13.82;47.64;92997.66;5133438;27;20420;-71
2022/04/01 03:37:49;;;;;;;58.55;9.75;;;;;;;13.92;47.48;93012.97;5099614;27;20134;-71
2022/04/01 03:40:15;;;;;;;57.97;9.45;;;;;;;13.96;47.39;92984.72;5116143;27;20046;-71
2022/04/01 03:42:41;;;;;;;54.15;9.18;;;;;;;13.98;47.10;93000.97;5099443;27;20046;-71
2022/04/01 03:45:07;;;;;;;48.22;8.10;;;;;;;14.05;47.09;93000.00;5116907;27;20031;-71
2022/04/01 03:47:59;;;;;;;53.28;8.02;;;;;;;14.07;46.84;92992.00;5133373;27;20169;-71
2022/04/01 03:50:29;;;;;;;57.72;8.73;;;;;;;14.14;46.86;92995.44;5117315;27;20465;-71
2022/04/01 03:53:01;;;;;;;64.13;10.40;;;;;;;14.22;46.25;92997.91;5116790;27;20479;-71
2022/04/01 03:55:27;;;;;;;58.47;10.05;;;;;;;14.23;46.11;92994.28;5154035;27;20098;-71
2022/04/01 03:57:53;;;;;;;63.78;9.77;;;;;;;14.13;46.00;92999.06;5109937;27;20424;-71
2022/04/01 04:00:18;;;;;;;75.95;10.00;;;;;;;14.24;45.29;93006.34;5095730;28;20047;-71
2022/04/01 04:02:44;;;;;;;57.85;9.77;;;;;;;14.29;45.04;93011.81;5121815;27;20408;-71
2022/04/01 04:05:10;;;;;;;66.45;10.70;;;;;;;14.39;44.13;93018.47;5153877;27;20552;-72
2022/04/01 04:07:39;;;;;;;56.10;9.10;;;;;;;14.45;44.34;93021.09;5144942;27;20031;-71
2022/04/01 04:10:06;;;;;;;77.43;10.00;;;;;;;14.47;43.88;93013.09;5116389;27;20038;-71
2022/04/01 04:12:31;;;;;;;63.03;9.65;;;;;;;14.57;43.92;93010.97;5112195;28;20477;-71
2022/04/01 04:14:57;;;;;;;63.25;9.52;;;;;;;14.55;43.91;92991.25;5095538;28;20030;-71
2022/04/01 04:17:44;;;;;;;79.63;10.18;;;;;;;14.55;43.98;92980.81;5106321;28;20470;-71
2022/04/01 04:20:13;;;;;;;64.97;11.07;;;;;;;14.59;43.80;92990.66;5132784;27;20027;-71
2022/04/01 04:22:57;;;;;;;61.50;10.32;;;;;;;14.72;43.67;93003.78;5132628;27;20073;-71
2022/04/01 04:25:25;;;;;;;50.92;9.43;;;;;;;14.74;43.63;93014.03;5132611;27;20032;-71
2022/04/01 04:27:57;;;;;;;57.83;9.48;;;;;;;14.71;43.73;93020.47;5132562;27;20031;-71
2022/04/01 04:30:33;;;;;;;51.47;8.32;;;;;;;14.85;43.25;93025.72;5116052;27;20019;-72
2022/04/01 04:33:04;;;;;;;65.63;9.48;;;;;;;14.85;43.55;93015.25;5121877;27;20483;-71
2022/04/01 04:35:29;;;;;;;72.45;10.43;;;;;;;14.91;43.64;93045.88;5135184;27;20030;-71
2022/04/01 04:37:57;;;;;;;57.25;9.23;;;;;;;14.94;43.51;93040.25;5132816;27;20035;-71
2022/04/01 04:40:23;;;;;;;53.38;8.70;;;;;;;14.85;44.94;93064.94;5132203;27;20111;-71
2022/04/01 04:42:48;;;;;;;48.42;7.53;;;;;;;14.59;46.57;93063.81;5133560;27;20038;-71
2022/04/01 04:45:18;;;;;;;41.40;8.35;;;;;;;14.17;47.98;93062.16;5108551;28;20027;-71
2022/04/01 04:47:43;;;;;;;37.40;8.10;;;;;;;13.90;48.63;93054.16;5094795;28;20034;-72
2022/04/01 04:50:09;;;;;;;42.03;6.53;;;;;;;13.92;48.71;93053.94;5131907;27;20393;-70
2022/04/01 04:52:35;;;;;;;42.50;7.35;;;;;;;13.97;48.83;93056.78;5115160;27;20066;-71
2022/04/01 04:55:02;;;;;;;45.75;7.25;;;;;;;13.91;49.11;93071.41;5110802;28;20034;-72
2022/04/01 04:57:28;;;;;;;41.72;6.63;;;;;;;13.81;48.94;93048.22;5094599;28;20036;-71
2022/04/01 04:59:56;;;;;;;36.92;7.80;;;;;;;13.84;49.11;93047.84;5124492;27;20079;-71
2022/04/01 05:02:48;;;;;;;47.67;8.57;;;;;;;13.93;49.12;93050.31;5131869;27;20492;-72
2022/04/01 05:05:27;;;;;;;42.97;7.32;;;;;;;13.74;49.79;93050.00;5100669;28;20050;-72
2022/04/01 05:08:10;;;;;;;49.97;8.35;;;;;;;13.75;49.41;93049.00;5103847;27;20035;-72
2022/04/01 05:10:59;;;;;;;49.88;8.10;;;;;;;13.87;49.51;93049.28;5131665;27;20547;-72
2022/04/01 05:13:51;;;;;;;52.63;8.13;;;;;;;14.06;48.43;93056.44;5112656;28;20077;-72
2022/04/01 05:16:31;;;;;;;39.70;6.72;;;;;;;14.33;47.93;93038.34;5122482;27;20420;-72
2022/04/01 05:19:09;;;;;;;41.38;8.30;;;;;;;14.37;48.22;93030.91;5118188;27;20028;-72
2022/04/01 05:21:53;;;;;;;46.60;7.30;;;;;;;14.45;48.01;93028.94;5114501;27;20053;-74
2022/04/01 05:24:23;;;;;;;45.60;7.68;;;;;;;14.68;47.21;93026.09;5115701;27;20086;-73
2022/04/01 05:26:52;;;;;;;46.47;6.97;;;;;;;14.77;46.84;93018.06;5114075;27;20419;-73
2022/04/01 05:29:25;;;;;;;43.83;7.72;;;;;;;15.03;45.87;93014.72;5098132;27;20533;-73
2022/04/01 05:32:04;;;;;;;46.90;9.43;;;;;;;15.14;45.87;93022.78;5114441;27;20404;-73
2022/04/01 05:34:40;;;;;;;40.88;7.85;;;;;;;15.14;45.66;93024.59;5131182;27;20032;-73
2022/04/01 05:37:06;;;;;;;51.63;9.75;;;;;;;15.18;45.96;93025.81;5125274;27;20096;-73
2022/04/01 05:39:31;;;;;;;51.45;8.35;;;;;;;15.13;45.86;93007.31;5110623;28;20027;-73
2022/04/01 05:41:57;;;;;;;60.22;10.15;;;;;;;14.96;45.96;93019.94;5114278;27;20019;-73
2022/04/01 05:44:24;;;;;;;61.53;10.25;;;;;;;15.05;45.76;93028.41;5130148;27;20039;-73
2022/04/01 05:46:51;;;;;;;64.43;7.85;;;;;;;15.03;45.56;93041.66;5131890;27;20054;-73
2022/04/01 05:49:16;;;;;;;65.97;9.30;;;;;;;15.11;45.42;93028.41;5151863;27;20393;-73
2022/04/01 05:51:42;;;;;;;47.88;8.55;;;;;;;15.33;45.52;93023.03;5151588;27;20132;-74
2022/04/01 05:54:08;;;;;;;56.47;8.68;;;;;;;15.54;45.29;93040.34;5134613;27;20045;-73
2022/04/01 05:56:36;;;;;;;53.35;8.73;;;;;;;15.64;44.84;93027.69;5110919;27;20035;-73
2022/04/01 05:59:02;;;;;;;41.50;8.00;;;;;;;15.79;45.48;93038.78;5093857;28;20137;-73
2022/04/01 06:01:46;;;;;;;42.17;7.65;;;;;;;15.99;45.91;93036.19;5107334;27;20027;-74
2022/04/01 06:04:30;;;;;;;49.65;8.02;;;;;;;16.11;45.97;93025.09;5134569;27;20075;-73
2022/04/01 06:07:08;;;;;;;50.45;8.40;;;;;;;16.09;46.52;93009.56;5130317;27;20279;-72
2022/04/01 06:09:43;;;;;;;47.85;7.68;;;;;;;16.19;44.78;93027.50;5130493;27;20031;-72
2022/04/01 06:12:45;;;;;;;62.17;7.97;;;;;;;16.53;43.95;93019.34;5129726;27;20019;-71
2022/04/01 06:15:32;;;;;;;47.20;8.40;;;;;;;16.55;44.39;92998.16;5130556;27;20039;-72
2022/04/01 06:18:15;;;;;;;44.13;8.32;;;;;;;16.41;44.26;93013.13;5117671;27;20019;-74
2022/04/01 06:20:41;;;;;;;55.92;7.28;;;;;;;16.69;44.50;93019.91;5108864;27;20065;-74
2022/04/01 06:23:14;;;;;;;59.05;8.93;;;;;;;16.87;44.56;93025.28;5092356;28;20489;-74
2022/04/01 06:25:42;;;;;;;47.95;8.70;;;;;;;17.01;44.17;93018.16;5093373;28;20039;-74
2022/04/01 06:28:21;;;;;;;47.63;8.27;;;;;;;17.19;43.67;93017.47;5092999;28;20118;-74
2022/04/01 06:30:46;;;;;;;47.55;8.07;;;;;;;17.36;43.57;93029.06;5094115;28;20046;-73
2022/04/01 06:33:37;;;;;;;51.10;9.30;;;;;;;17.57;43.00;93016.59;5098569;28;20400;-70
2022/04/01 06:36:03;;;;;;;;;;;;;;;17.67;42.66;93037.94;5117828;28;20031;-73
2022/04/01 06:38:37;;;;;;;40.67;8.00;;;;;;;17.73;42.96;93026.59;5116815;27;19935;-72
2022/04/01 06:41:19;;;;;;;53.58;8.20;;;;;;;17.85;42.66;93035.41;5093788;28;20050;-76
2022/04/01 06:43:44;;;;;;;62.53;8.93;;;;;;;17.99;42.35;93045.81;5094573;28;20028;-75
2022/04/01 06:46:10;;;;;;;47.17;8.30;;;;;;;18.08;41.70;93040.09;5113307;28;20066;-74
2022/04/01 06:48:36;;;;;;;46.80;8.43;;;;;;;18.19;41.15;93040.38;5111603;28;20019;-73
2022/04/01 06:51:01;;;;;;;55.95;8.38;;;;;;;18.32;40.94;93040.25;5110098;28;20039;-73
2022/04/01 06:53:27;;;;;;;57.30;10.27;;;;;;;18.49;40.96;93053.63;5109856;28;20024;-73
2022/04/01 06:55:53;;;;;;;52.28;8.25;;;;;;;18.65;41.24;93044.38;5110304;28;20111;-74
2022/04/01 06:58:20;;;;;;;47.78;8.18;;;;;;;18.80;39.89;93049.28;5093018;28;20032;-74
2022/04/01 07:00:45;;;;;;;51.20;8.68;;;;;;;18.87;39.87;93023.72;5098756;28;20035;-74
2022/04/01 07:03:11;;;;;;;46.80;8.15;;;;;;;18.96;40.22;93053.97;5113315;28;20473;-74
2022/04/01 07:05:37;;;;;;;56.47;9.30;;;;;;;19.03;39.65;93032.81;5126617;28;20039;-74
2022/04/01 07:08:04;;;;;;;50.25;9.10;;;;;;;19.15;40.06;93045.03;5120844;27;20023;-74
2022/04/01 07:10:30;;;;;;;57.70;8.90;;;;;;;19.29;39.12;93050.91;5117271;27;20062;-74
2022/04/01 07:12:56;;;;;;;48.03;8.25;;;;;;;19.43;38.95;93035.75;5116561;27;20032;-74
2022/04/01 07:15:21;;;;;;;48.72;9.07;;;;;;;19.59;38.61;93040.38;5126890;27;20515;-76
2022/04/01 07:17:47;;;;;;;49.45;8.23;;;;;;;19.67;38.46;93046.38;5121710;27;20084;-76
2022/04/01 07:20:12;;;;;;;49.47;8.25;;;;;;;19.57;38.10;93026.63;5115697;27;20038;-76
2022/04/01 07:22:40;;;;;;;49.50;8.68;;;;;;;19.38;38.19;93031.16;5089714;27;20043;-76
2022/04/01 07:25:06;;;;;;;58.70;8.52;;;;;;;19.53;38.30;93029.94;5133985;27;20031;-76
2022/04/01 07:27:33;;;;;;;51.38;8.80;;;;;;;19.68;37.19;93032.19;5115750;27;20031;-76
2022/04/01 07:29:58;;;;;;;53.30;8.77;;;;;;;19.66;37.03;93023.72;5134579;27;20031;-72
2022/04/01 07:32:29;;;;;;;48.03;8.20;;;;;;;19.71;37.64;93023.84;5133745;27;20034;-73
2022/04/01 07:34:55;;;;;;;59.22;9.18;;;;;;;19.90;37.44;93030.63;5097988;28;20122;-73
2022/04/01 07:37:23;;;;;;;72.47;10.23;;;;;;;20.02;36.61;93034.06;5096239;28;20108;-73
2022/04/01 07:39:49;;;;;;;53.90;9.00;;;;;;;19.89;36.40;93018.47;5096452;28;20027;-73
2022/04/01 07:42:15;;;;;;;48.30;8.80;;;;;;;20.03;36.00;93025.16;5113194;28;20235;-73
2022/04/01 07:44:40;;;;;;;60.08;9.70;;;;;;;20.02;35.75;93031.44;5114632;28;20138;-73
2022/04/01 07:47:09;;;;;;;55.72;8.57;;;;;;;20.16;35.70;93023.31;5114381;28;20027;-73
2022/04/01 07:49:36;;;;;;;52.63;9.05;;;;;;;20.25;35.41;93033.31;5112979;28;20039;-73
2022/04/01 07:52:02;;;;;;;52.35;9.13;;;;;;;20.37;35.45;93035.13;5112934;28;20020;-73
2022/04/01 07:54:27;;;;;;;50.72;9.13;;;;;;;20.55;34.95;93031.59;5112840;28;20031;-73
2022/04/01 07:56:53;;;;;;;50.97;10.40;;;;;;;20.65;33.61;93031.81;5113993;28;20397;-73
2022/04/01 07:59:21;;;;;;;57.50;8.98;;;;;;;20.50;33.55;93021.69;5114003;28;20057;-73
2022/04/01 08:01:46;;;;;;;56.47;9.23;;;;;;;20.66;33.78;93026.28;5112694;28;20102;-73
2022/04/01 08:04:11;;;;;;;49.00;9.57;;;;;;;20.73;33.72;93028.81;5095559;28;20035;-73
2022/04/01 08:06:37;;;;;;;65.20;9.50;;;;;;;20.87;34.03;93024.88;5095450;28;20031;-73
2022/04/01 08:09:02;;;;;;;62.08;10.25;;;;;;;21.01;34.28;93030.72;5113712;28;20028;-73
2022/04/01 08:11:28;;;;;;;57.63;7.97;;;;;;;21.12;32.87;93034.34;5095461;28;20028;-73
2022/04/01 08:13:54;;;;;;;50.22;7.65;;;;;;;21.24;31.20;93032.47;5095554;28;20042;-73
2022/04/01 08:16:20;;;;;;;52.00;7.22;;;;;;;21.32;31.61;93029.44;5095707;28;20547;-73
2022/04/01 08:18:46;;;;;;;52.30;8.48;;;;;;;21.24;33.43;93040.38;5078582;28;20068;-73
2022/04/01 08:21:11;;;;;;;52.90;8.15;;;;;;;21.33;31.84;93024.97;5112217;28;20451;-73
2022/04/01 08:23:37;;;;;;;54.95;8.85;;;;;;;21.45;30.53;93025.72;5095431;28;20382;-73
2022/04/01 08:26:03;;;;;;;61.72;8.93;;;;;;;21.33;30.64;93020.47;5113273;28;20032;-73
2022/04/01 08:28:29;;;;;;;55.35;8.00;;;;;;;21.42;30.50;93024.41;5095257;28;20024;-73
2022/04/01 08:30:54;;;;;;;64.32;9.02;;;;;;;21.50;31.31;93017.91;5095388;28;20036;-73
2022/04/01 08:33:20;;;;;;;43.90;7.68;;;;;;;21.65;31.22;93025.31;5112076;28;20043;-73
2022/04/01 08:35:46;;;;;;;52.90;7.78;;;;;;;21.68;29.68;93011.63;5113396;28;20028;-73
2022/04/01 08:38:12;;;;;;;57.42;8.65;;;;;;;21.59;30.19;93021.78;5112058;28;20489;-73
2022/04/01 08:40:37;;;;;;;68.78;8.80;;;;;;;21.31;30.32;93004.09;5094906;28;20092;-73
2022/04/01 08:43:03;;;;;;;48.45;8.45;;;;;;;21.15;30.52;93010.13;5094886;28;20019;-73
2022/04/01 08:45:31;;;;;;;58.65;9.07;;;;;;;21.23;30.80;93001.00;5094909;28;20036;-73
2022/04/01 08:47:56;;;;;;;58.65;8.25;;;;;;;21.23;30.60;93001.81;5111726;28;20031;-74
2022/04/01 08:50:22;;;;;;;57.85;8.95;;;;;;;21.20;31.08;93002.28;5113155;28;20020;-73
2022/04/01 08:52:47;;;;;;;55.33;8.10;;;;;;;21.14;31.36;93004.00;5112109;28;20035;-73
2022/04/01 08:55:13;;;;;;;53.28;8.07;;;;;;;20.92;30.74;92997.78;5112814;28;20409;-73
2022/04/01 08:57:39;;;;;;;61.22;8.55;;;;;;;20.66;31.83;92980.66;5111510;28;20532;-73
2022/04/01 09:00:11;;;;;;;50.33;7.82;;;;;;;20.72;32.40;92974.44;5077947;28;20036;-73
2022/04/01 09:02:36;;;;;;;51.28;9.43;;;;;;;20.78;32.80;92948.94;5112716;27;20039;-73
2022/04/01 09:05:06;;;;;;;52.60;8.60;;;;;;;20.48;32.88;92928.84;5111392;28;20028;-74
2022/04/01 09:07:32;;;;;;;48.73;8.53;;;;;;;20.42;32.63;92921.84;5111614;28;20031;-73
2022/04/01 09:10:07;;;;;;;56.10;9.25;;;;;;;20.50;32.34;92939.94;5111548;28;20035;-73
2022/04/01 09:12:34;;;;;;;61.13;8.88;;;;;;;20.34;32.34;92922.19;5112745;28;20023;-73
2022/04/01 09:15:00;;;;;;;52.97;8.93;;;;;;;20.40;32.58;92927.34;5094623;28;20500;-73
2022/04/01 09:17:42;;;;;;;64.20;8.65;;;;;;;20.28;32.75;92913.38;5111143;28;20028;-73
2022/04/01 09:20:09;;;;;;;54.60;9.10;;;;;;;20.21;33.02;92915.34;5111285;28;20032;-73
2022/04/01 09:22:35;;;;;;;58.33;8.90;;;;;;;20.23;33.10;92902.75;5111107;28;20027;-73
2022/04/01 09:25:21;;;;;;;57.40;8.13;;;;;;;20.31;32.88;92889.22;5094235;28;20485;-73
2022/04/01 09:27:46;;;;;;;53.60;8.52;;;;;;;20.36;32.95;92876.13;5112227;28;20089;-73
2022/04/01 09:30:19;;;;;;;56.88;7.43;;;;;;;20.34;33.20;92851.84;5112438;28;20051;-73
2022/04/01 09:32:49;;;;;;;46.90;7.75;;;;;;;20.46;32.93;92839.41;5110234;28;20042;-73
2022/04/01 09:35:15;;;;;;;57.72;7.95;;;;;;;20.57;33.08;92834.34;5110951;28;20031;-72
2022/04/01 09:37:45;;;;;;;60.45;7.55;;;;;;;20.61;32.94;92827.56;5094003;28;20051;-73
2022/04/01 09:40:13;;;;;;;51.50;8.00;;;;;;;20.70;32.46;92845.44;5094036;28;20038;-73
2022/04/01 09:42:39;;;;;;;45.35;7.05;;;;;;;20.69;32.35;92830.63;5110692;28;20549;-72
2022/04/01 09:45:06;;;;;;;62.83;8.75;;;;;;;20.60;31.34;92824.13;5110777;28;20039;-72
2022/04/01 09:47:36;;;;;;;52.65;8.55;;;;;;;20.33;32.53;92817.78;5110563;28;20034;-72
2022/04/01 09:50:09;;;;;;;65.40;8.45;;;;;;;20.25;32.43;92817.13;5093756;28;20040;-72
2022/04/01 09:52:36;;;;;;;59.47;8.52;;;;;;;20.11;32.73;92815.00;5110575;28;20032;-72
2022/04/01 09:55:02;;;;;;;42.30;8.40;;;;;;;20.09;33.15;92802.06;5093989;28;20028;-72
2022/04/01 09:57:28;;;;;;;47.53;7.72;;;;;;;20.28;32.16;92821.13;5093551;28;20026;-72
2022/04/01 09:59:54;;;;;;;50.00;7.68;;;;;;;20.24;32.23;92810.25;5110572;28;20027;-72
2022/04/01 10:02:20;;;;;;;56.85;7.93;;;;;;;20.26;31.90;92808.19;5093406;28;20566;-71
2022/04/01 10:04:45;;;;;;;48.50;7.18;;;;;;;20.34;31.86;92830.75;5110356;28;20027;-72
2022/04/01 10:07:13;;;;;;;53.55;7.30;;;;;;;20.29;31.70;92805.06;5093324;28;20032;-73
2022/04/01 10:09:39;;;;;;;54.15;7.68;;;;;;;20.43;32.12;92821.41;5110390;28;20063;-72
2022/04/01 10:12:09;;;;;;;51.45;7.20;;;;;;;20.42;31.60;92822.47;5111478;28;20031;-72
2022/04/01 10:14:35;;;;;;;49.90;6.68;;;;;;;20.51;31.84;92809.69;5110246;28;20030;-72
2022/04/01 10:17:01;;;;;;;53.13;7.60;;;;;;;20.62;30.74;92823.91;5093262;28;20031;-72
2022/04/01 10:19:37;;;;;;;43.70;6.10;;;;;;;20.41;31.71;92836.66;5110166;28;20024;-71
2022/04/01 10:22:03;;;;;;;53.50;7.00;;;;;;;20.23;31.21;92803.38;5094115;28;20251;-70
2022/04/01 10:24:47;;;;;;;43.58;7.90;;;;;;;20.02;32.50;92796.91;5093224;28;20031;-72
2022/04/01 10:27:23;;;;;;;46.33;7.43;;;;;;;19.98;32.34;92816.88;5111275;28;20504;-73
2022/04/01 10:29:48;;;;;;;49.60;7.07;;;;;;;19.90;32.05;92827.75;5111484;28;20063;-73
2022/04/01 10:32:20;;;;;;;45.08;6.47;;;;;;;20.00;32.43;92827.97;5110017;28;20481;-73
2022/04/01 10:34:45;;;;;;;50.33;8.20;;;;;;;19.94;31.71;92815.72;5110291;28;20080;-73
2022/04/01 10:37:14;;;;;;;46.78;6.90;;;;;;;19.93;31.77;92808.06;5093091;28;20051;-73
2022/04/01 10:39:55;;;;;;;40.47;5.78;;;;;;;19.92;31.83;92830.16;5109958;28;20027;-73
2022/04/01 10:42:39;;;;;;;42.45;6.75;;;;;;;19.86;31.86;92795.00;5110496;28;20027;-73
2022/04/01 10:45:23;;;;;;;41.95;6.22;;;;;;;20.13;31.83;92813.72;5097253;28;20043;-73
2022/04/01 10:53:37;;;;;;;34.72;5.78;;;;;;;20.12;31.03;92829.78;5099971;28;20069;-73
2022/04/01 10:56:21;;;;;;;37.47;5.85;;;;;;;20.08;31.32;92810.97;5115641;28;20625;-73
2022/04/01 10:59:12;;;;;;;47.08;7.43;;;;;;;20.19;31.63;92849.69;5113907;28;20049;-73
2022/04/01 11:01:39;;;;;;;41.58;7.00;;;;;;;20.20;31.43;92818.88;5115098;28;20028;-73
2022/04/01 11:04:08;;;;;;;43.42;6.35;;;;;;;20.16;31.33;92823.78;5096972;28;20080;-73
2022/04/01 11:06:35;;;;;;;44.08;7.05;;;;;;;20.30;31.13;92801.41;5114943;28;20112;-73
2022/04/01 11:09:04;;;;;;;41.55;6.78;;;;;;;20.22;31.54;92779.88;5112049;28;20027;-73
2022/04/01 11:11:29;;;;;;;40.92;6.78;;;;;;;20.16;31.36;92726.28;5114805;28;20039;-73
2022/04/01 11:14:05;;;;;;;52.15;7.40;;;;;;;20.32;31.27;92753.72;5096642;28;20024;-73
2022/04/01 11:16:50;;;;;;;41.75;6.38;;;;;;;20.33;31.15;92780.88;5096679;28;20046;-73
2022/04/01 11:19:16;;;;;;;46.30;6.00;;;;;;;20.43;31.06;92773.97;5113712;28;20532;-73
2022/04/01 11:21:42;;;;;;;44.42;6.65;;;;;;;20.25;31.39;92768.88;5114743;28;20092;-73
2022/04/01 11:24:21;;;;;;;33.08;7.00;;;;;;;20.34;31.82;92767.47;5113486;28;20027;-73
2022/04/01 11:26:47;;;;;;;35.42;5.72;;;;;;;20.38;31.01;92775.69;5113216;28;20024;-73
2022/04/01 11:29:22;;;;;;;36.78;6.78;;;;;;;20.34;31.18;92770.09;5113343;28;20015;-73
2022/04/01 11:31:48;;;;;;;28.20;5.28;;;;;;;20.36;31.04;92797.00;5114501;28;20034;-73
2022/04/01 11:34:13;;;;;;;38.83;5.95;;;;;;;20.43;31.37;92810.88;5113257;28;20023;-73
2022/04/01 11:36:42;;;;;;;41.17;6.40;;;;;;;20.24;31.61;92801.53;5113103;28;20047;-73
2022/04/01 11:39:15;;;;;;;39.53;7.93;;;;;;;20.28;31.59;92815.84;5113062;28;20023;-73
2022/04/01 11:41:49;;;;;;;40.97;5.22;;;;;;;20.26;31.46;92818.72;5095999;28;20413;-73
2022/04/01 11:44:15;;;;;;;36.67;6.05;;;;;;;20.38;30.72;92805.50;5113056;28;20039;-73